الصفحة الرئيسية
METAR-TAF:

METAR-TAF

مطار :

Miri, ماليزيا

دائرة عرض: 04-20N, خط طول: 113-59E, ارتفاع: 17 متر

مراقبة الطقس الحالي

تاريخ ووقت الإصدار 1ساعة و 5 دقيقة قبل الساعة 05:00UTC
ريح 6 عقدة من الغرب, الاتجاه يتراوح بين الجنوب و الشمال
درجة الحرارة 32°درجة مئوية
الرطوبة 71%
ضغط 1006 hPa
الرؤية 10 كم أو أكثر
غيوم متفرقة على ارتفاع 1600 قدم

METAR: WBGR 190500Z 26006KT 180V350 9999 SCT016 32/26 Q1006

زمن: 14:05 (06:05 UTC)

توقعات

تاريخ ووقت الإصدار 1ساعة و 5 دقيقة قبل الساعة 05:00UTC
التوقعات صالحة من19 الساعة 06 UTC إلى 20 الساعة 06 UTC
ريح 5 عقدة من الجنوب/الجنوب الغربي
الرؤية 10 كم أو أكثر
غيوم قليلة على ارتفاع 1600 قدم
مؤقت
من 19 الساعة 08 UTC إلى 19 الساعة 12 UTC
الرؤية: 6000 متر
غيوم متفرقة على ارتفاع 1600 قدم
مطر,

TAF: WBGR 190500Z 1906/2006 20005KT 9999 FEW016 TEMPO 1908/1912 6000 RA SCT016

أرصاد الطقس والتوقعات من أكثر من 4000 مطار (تقارير الطقس للمطار METAR والتنبؤ بالطقس بالمطارTAF).

المحطات المتاحة هي النقط الصفراء والحمراء على الخريطة.

حرك المؤشر فوق النقطة لمعرفة اسم المحطة.

ثم انقر لمعرفة أرصاد وتوقعات الطقس.

لتغيير الخارطة: اضغط على الأزرار الخضراء مع رمز الصليب الأسود للتكبير. على الزر الأخضر مع شرطة للتصغير، أو على الأسهم الخضراء للخرائط المجاورة.


METAR-TAF: